createdAt,value
2022-10-11T00:02:41.722Z,8.18
2022-10-11T00:06:44.453Z,8.82
2022-10-11T00:10:56.257Z,11.90
2022-10-11T00:15:00.311Z,12.80
2022-10-11T00:19:03.248Z,8.50
2022-10-11T00:23:05.914Z,7.68
2022-10-11T00:27:08.843Z,13.55
2022-10-11T00:31:16.663Z,9.77
2022-10-11T00:35:19.690Z,11.13
2022-10-11T00:39:22.650Z,10.95
2022-10-11T00:43:27.674Z,10.15
2022-10-11T00:47:31.709Z,13.13
2022-10-11T00:51:42.646Z,16.85
2022-10-11T00:55:51.315Z,8.63
2022-10-11T00:59:56.004Z,11.38
2022-10-11T01:04:00.161Z,10.20
2022-10-11T01:08:04.294Z,10.48
2022-10-11T01:12:14.903Z,18.10
2022-10-11T01:16:28.117Z,15.02
2022-10-11T01:20:39.071Z,13.32
2022-10-11T01:25:04.538Z,16.95
2022-10-11T01:29:14.507Z,10.80
2022-10-11T01:33:30.942Z,7.10
2022-10-11T01:37:37.097Z,13.18
2022-10-11T01:41:43.258Z,11.82
2022-10-11T01:45:48.918Z,8.27
2022-10-11T01:49:57.266Z,17.63
2022-10-11T01:54:08.222Z,8.57
2022-10-11T01:58:19.306Z,10.05
2022-10-11T02:02:34.597Z,20.95
2022-10-11T02:06:46.185Z,11.00
2022-10-11T02:10:53.537Z,9.55
2022-10-11T02:14:58.517Z,12.57
2022-10-11T02:19:04.358Z,9.50
2022-10-11T02:23:11.655Z,11.27
2022-10-11T02:27:16.083Z,11.23
2022-10-11T02:31:20.102Z,10.77
2022-10-11T02:35:27.721Z,11.30
2022-10-11T02:39:36.611Z,10.88
2022-10-11T02:43:44.191Z,12.38
2022-10-11T02:47:47.920Z,15.38
2022-10-11T02:51:50.615Z,12.32
2022-10-11T02:55:56.372Z,12.82
2022-10-11T02:59:59.109Z,11.50
2022-10-11T03:04:01.783Z,9.50
2022-10-11T03:08:04.475Z,11.35
2022-10-11T03:12:09.039Z,11.63
2022-10-11T03:16:12.304Z,11.60
2022-10-11T03:20:15.346Z,16.80
2022-10-11T03:24:18.028Z,11.23
2022-10-11T03:28:22.540Z,12.00
2022-10-11T03:32:25.431Z,11.88
2022-10-11T03:36:28.149Z,9.52
2022-10-11T03:40:30.904Z,9.00
2022-10-11T03:44:34.989Z,11.00
2022-10-11T03:48:37.688Z,12.40
2022-10-11T03:52:40.423Z,11.25
2022-10-11T03:56:43.113Z,10.80
2022-10-11T04:00:47.341Z,15.55
2022-10-11T04:04:50.065Z,12.60
2022-10-11T04:08:52.754Z,9.35
2022-10-11T04:12:55.481Z,7.85
2022-10-11T04:17:00.463Z,13.20
2022-10-11T04:21:03.531Z,13.00
2022-10-11T04:25:07.521Z,7.18
2022-10-11T04:29:10.202Z,10.63
2022-10-11T04:33:14.402Z,15.68
2022-10-11T04:37:17.475Z,15.77
2022-10-11T04:41:20.166Z,15.73
2022-10-11T04:45:22.961Z,12.23
2022-10-11T04:49:27.062Z,11.55
2022-10-11T04:53:29.920Z,10.68
2022-10-11T04:57:32.851Z,15.57
2022-10-11T05:01:35.717Z,10.43
2022-10-11T05:05:39.839Z,9.70
2022-10-11T05:09:42.567Z,10.13
2022-10-11T05:13:46.269Z,16.08
2022-10-11T05:17:48.995Z,13.60
2022-10-11T05:21:53.090Z,13.52
2022-10-11T05:25:55.787Z,12.45
2022-10-11T05:29:58.546Z,15.32
2022-10-11T05:34:01.298Z,12.73
2022-10-11T05:38:05.338Z,10.25
2022-10-11T05:42:09.998Z,10.30
2022-10-11T05:46:13.165Z,11.63
2022-10-11T05:50:17.924Z,8.88
2022-10-11T05:54:24.826Z,8.98
2022-10-11T05:58:27.709Z,10.20
2022-10-11T06:02:30.454Z,9.30
2022-10-11T06:06:33.216Z,11.93
2022-10-11T06:10:38.203Z,9.05
2022-10-11T06:14:40.874Z,11.05
2022-10-11T06:18:43.589Z,8.20
2022-10-11T06:22:46.253Z,8.82
2022-10-11T06:26:50.947Z,13.45
2022-10-11T06:30:53.670Z,8.57
2022-10-11T06:34:56.401Z,10.90
2022-10-11T06:39:00.949Z,8.77
2022-10-11T06:43:05.060Z,11.13
2022-10-11T06:47:08.264Z,10.18
2022-10-11T06:51:11.327Z,13.73
2022-10-11T06:55:14.121Z,10.55
2022-10-11T06:59:18.264Z,9.25
2022-10-11T07:03:20.966Z,14.15
2022-10-11T07:07:23.687Z,10.10
2022-10-11T07:11:28.542Z,10.93
2022-10-11T07:15:34.594Z,15.02
2022-10-11T07:19:37.311Z,9.15
2022-10-11T07:23:40.286Z,8.90
2022-10-11T07:27:42.997Z,14.13
2022-10-11T07:31:47.196Z,16.10
2022-10-11T07:35:50.730Z,14.52
2022-10-11T07:39:53.432Z,10.75
2022-10-11T07:43:56.218Z,7.22
2022-10-11T07:48:00.228Z,8.45
2022-10-11T07:52:02.985Z,11.32
2022-10-11T07:56:06.628Z,6.70
2022-10-11T08:00:10.777Z,8.73
2022-10-11T08:08:20.296Z,12.23
2022-10-11T08:12:23.251Z,12.43
2022-10-11T08:16:26.185Z,10.40
2022-10-11T08:20:31.122Z,10.98
2022-10-11T08:24:39.406Z,11.55
2022-10-11T08:28:42.183Z,17.35
2022-10-11T08:32:45.073Z,9.10
2022-10-11T08:36:49.453Z,10.65
2022-10-11T08:40:55.147Z,14.05
2022-10-11T08:45:17.212Z,10.80
2022-10-11T08:49:24.152Z,12.70
2022-10-11T08:53:38.822Z,9.25
2022-10-11T08:57:42.290Z,12.90
2022-10-11T09:01:50.696Z,12.30
2022-10-11T09:06:02.832Z,14.10
2022-10-11T09:10:27.504Z,16.70
2022-10-11T09:14:47.623Z,14.93
2022-10-11T09:19:08.550Z,10.57
2022-10-11T09:23:24.451Z,12.20
2022-10-11T09:27:57.658Z,11.77
2022-10-11T09:31:57.981Z,11.63
2022-10-11T09:36:01.089Z,15.52
2022-10-11T09:40:17.964Z,9.95
2022-10-11T09:44:24.615Z,12.77
2022-10-11T09:48:31.568Z,13.57
2022-10-11T09:52:34.654Z,16.52
2022-10-11T09:56:43.750Z,14.55
2022-10-11T10:00:58.511Z,13.88
2022-10-11T10:05:15.265Z,12.85
2022-10-11T10:13:28.332Z,16.25
2022-10-11T10:17:33.114Z,19.00
2022-10-11T10:21:37.915Z,10.85
2022-10-11T10:25:43.545Z,11.80
2022-10-11T10:30:02.699Z,17.27
2022-10-11T10:34:14.985Z,11.75
2022-10-11T10:38:26.783Z,15.18
2022-10-11T10:42:29.877Z,13.85
2022-10-11T10:46:49.987Z,13.23
2022-10-11T10:50:59.714Z,14.00
2022-10-11T10:55:08.613Z,17.30
2022-10-11T10:59:38.843Z,10.25
2022-10-11T11:03:47.361Z,15.15
2022-10-11T11:07:56.691Z,18.90
2022-10-11T11:12:07.042Z,11.50
2022-10-11T11:16:16.627Z,11.02
2022-10-11T11:20:29.522Z,20.20
2022-10-11T11:24:41.011Z,8.82
2022-10-11T11:28:55.010Z,16.85
2022-10-11T11:33:07.802Z,10.32
2022-10-11T11:37:20.739Z,13.23
2022-10-11T11:41:28.678Z,10.07
2022-10-11T11:45:46.099Z,10.35
2022-10-11T11:49:54.635Z,12.15
2022-10-11T11:54:06.015Z,10.10
2022-10-11T11:58:25.835Z,15.32
2022-10-11T12:02:42.323Z,13.00
2022-10-11T12:11:08.146Z,10.00
2022-10-11T12:15:23.301Z,14.60
2022-10-11T12:19:28.255Z,12.80
2022-10-11T12:23:44.510Z,13.80
2022-10-11T12:27:49.322Z,11.80
2022-10-11T12:32:32.820Z,8.52
2022-10-11T12:36:39.415Z,9.45
2022-10-11T12:40:46.938Z,11.68
2022-10-11T12:45:25.451Z,10.48
2022-10-11T12:49:41.823Z,8.98
2022-10-11T12:54:25.035Z,10.15
2022-10-11T12:58:30.143Z,11.55
2022-10-11T13:02:42.501Z,12.05
2022-10-11T13:06:49.135Z,11.02
2022-10-11T13:10:52.475Z,11.85
2022-10-11T13:15:03.786Z,16.58
2022-10-11T13:19:06.734Z,10.82
2022-10-11T13:23:21.589Z,11.48
2022-10-11T13:27:27.756Z,11.13
2022-10-11T13:31:30.582Z,15.90
2022-10-11T13:35:35.631Z,13.80
2022-10-11T13:39:40.171Z,13.85
2022-10-11T13:43:43.015Z,12.48
2022-10-11T13:47:47.101Z,10.63
2022-10-11T13:51:59.108Z,14.05
2022-10-11T13:56:05.026Z,9.63
2022-10-11T14:00:27.934Z,14.65
2022-10-11T14:04:41.439Z,8.98
2022-10-11T14:08:47.151Z,10.23
2022-10-11T14:13:08.057Z,14.10
2022-10-11T14:17:16.713Z,11.98
2022-10-11T14:21:26.707Z,14.23
2022-10-11T14:25:29.554Z,9.85
2022-10-11T14:29:35.583Z,11.15
2022-10-11T14:33:38.759Z,11.95
2022-10-11T14:37:41.442Z,11.18
2022-10-11T14:41:44.228Z,14.07
2022-10-11T14:45:48.286Z,15.23
2022-10-11T14:49:50.974Z,11.55
2022-10-11T14:53:53.711Z,16.90
2022-10-11T14:57:56.562Z,29.90
2022-10-11T15:02:00.919Z,22.95
2022-10-11T15:06:03.866Z,16.48
2022-10-11T15:10:17.833Z,14.98
2022-10-11T15:14:20.613Z,12.82
2022-10-11T15:18:24.660Z,8.45
2022-10-11T15:22:27.586Z,13.55
2022-10-11T15:26:30.877Z,13.85
2022-10-11T15:30:41.026Z,14.32
2022-10-11T15:34:45.732Z,10.07
2022-10-11T15:38:49.027Z,19.58
2022-10-11T15:42:52.623Z,16.95
2022-10-11T15:46:55.348Z,12.13
2022-10-11T15:50:59.977Z,12.32
2022-10-11T15:55:02.658Z,9.40
2022-10-11T15:59:05.350Z,15.00
2022-10-11T16:03:08.034Z,14.07
2022-10-11T16:07:12.093Z,14.35
2022-10-11T16:11:15.096Z,13.82
2022-10-11T16:15:18.366Z,14.23
2022-10-11T16:19:21.026Z,16.50
2022-10-11T16:23:25.111Z,13.32
2022-10-11T16:27:27.964Z,15.13
2022-10-11T16:31:30.713Z,13.32
2022-10-11T16:35:33.505Z,11.98
2022-10-11T16:39:38.018Z,9.52
2022-10-11T16:43:40.947Z,12.40
2022-10-11T16:47:44.810Z,16.67
2022-10-11T16:51:47.504Z,11.40
2022-10-11T16:55:51.550Z,14.15
2022-10-11T16:59:54.678Z,14.43
2022-10-11T17:03:58.139Z,11.63
2022-10-11T17:08:01.167Z,9.32
2022-10-11T17:12:05.807Z,12.95
2022-10-11T17:16:09.302Z,19.50
2022-10-11T17:20:12.460Z,14.25
2022-10-11T17:24:15.251Z,19.25
2022-10-11T17:28:19.307Z,13.90
2022-10-11T17:32:22.024Z,14.40
2022-10-11T17:36:27.721Z,14.10
2022-10-11T17:40:30.486Z,20.00
2022-10-11T17:44:35.527Z,20.15
2022-10-11T17:48:39.283Z,23.23
2022-10-11T17:52:42.439Z,18.33
2022-10-11T17:56:45.143Z,24.10
2022-10-11T18:00:49.272Z,19.75
2022-10-11T18:04:52.009Z,21.63
2022-10-11T18:08:54.690Z,18.73
2022-10-11T18:12:57.432Z,20.63
2022-10-11T18:17:01.484Z,23.35
2022-10-11T18:21:04.391Z,24.48
2022-10-11T18:25:07.612Z,15.80
2022-10-11T18:29:10.823Z,16.40
2022-10-11T18:33:16.524Z,20.55
2022-10-11T18:37:19.220Z,17.47
2022-10-11T18:41:23.798Z,21.05
2022-10-11T18:45:26.544Z,20.77
2022-10-11T18:49:30.979Z,19.30
2022-10-11T18:53:34.392Z,18.73
2022-10-11T18:57:37.134Z,25.83
2022-10-11T19:01:42.353Z,26.70
2022-10-11T19:05:46.502Z,22.10
2022-10-11T19:09:49.268Z,23.52
2022-10-11T19:13:56.492Z,23.70
2022-10-11T19:17:59.206Z,28.88
2022-10-11T19:22:03.562Z,31.63
2022-10-11T19:26:07.627Z,25.25
2022-10-11T19:30:11.643Z,23.30
2022-10-11T19:34:14.634Z,21.98
2022-10-11T19:42:27.378Z,27.42
2022-10-11T19:50:52.986Z,24.17
2022-10-11T19:54:57.038Z,20.90
2022-10-11T19:59:00.212Z,25.23
2022-10-11T20:03:02.971Z,23.60
2022-10-11T20:07:05.711Z,28.52
2022-10-11T20:11:11.412Z,28.50
2022-10-11T20:15:14.189Z,26.67
2022-10-11T20:19:17.457Z,25.70
2022-10-11T20:23:23.742Z,26.33
2022-10-11T20:27:33.410Z,26.83
2022-10-11T20:31:38.763Z,25.45
2022-10-11T20:35:42.400Z,28.25
2022-10-11T20:39:45.119Z,25.15
2022-10-11T20:43:50.991Z,25.33
2022-10-11T20:47:54.058Z,32.08
2022-10-11T20:51:57.034Z,25.63
2022-10-11T20:55:59.708Z,28.80
2022-10-11T21:00:03.822Z,27.50
2022-10-11T21:04:07.790Z,27.65
2022-10-11T21:08:10.739Z,30.80
2022-10-11T21:12:13.445Z,31.52
2022-10-11T21:16:18.044Z,26.60
2022-10-11T21:20:20.906Z,29.83
2022-10-11T21:24:23.574Z,36.17
2022-10-11T21:28:26.361Z,29.65
2022-10-11T21:32:30.461Z,26.65
2022-10-11T21:36:33.171Z,27.63
2022-10-11T21:40:39.627Z,29.88
2022-10-11T21:44:43.421Z,27.35
2022-10-11T21:48:47.536Z,27.63
2022-10-11T21:52:50.207Z,34.47
2022-10-11T21:56:52.936Z,30.33
2022-10-11T22:00:55.690Z,33.95
2022-10-11T22:04:59.755Z,31.13
2022-10-11T22:09:03.641Z,29.45
2022-10-11T22:13:06.853Z,27.83
2022-10-11T22:17:09.564Z,25.27
2022-10-11T22:21:15.438Z,32.47
2022-10-11T22:25:18.265Z,30.55
2022-10-11T22:29:21.036Z,33.08
2022-10-11T22:33:23.775Z,29.90
2022-10-11T22:37:27.805Z,23.70
2022-10-11T22:41:30.551Z,34.47
2022-10-11T22:45:33.236Z,35.22
2022-10-11T22:49:35.956Z,36.28
2022-10-11T22:53:40.058Z,32.78
2022-10-11T22:57:42.783Z,29.88
2022-10-11T23:01:45.545Z,31.33
2022-10-11T23:05:55.366Z,34.15
2022-10-11T23:09:59.426Z,32.58
2022-10-11T23:14:02.098Z,33.95
2022-10-11T23:18:04.993Z,30.30
2022-10-11T23:22:07.670Z,28.55
2022-10-11T23:26:13.754Z,36.90
2022-10-11T23:30:16.574Z,34.60
2022-10-11T23:34:19.318Z,46.15
2022-10-11T23:38:22.039Z,37.00
2022-10-11T23:42:26.084Z,38.95
2022-10-11T23:46:28.985Z,32.97
2022-10-11T23:50:31.695Z,35.10
2022-10-11T23:54:34.419Z,37.67
2022-10-11T23:58:38.697Z,31.67
